Main page
METAR-TAF:

METAR-TAF

Airports :

Julius Nyerere International Airport

Dar es Salaam, Tanzania

latitude: 06-52S, longitude: 039-12E, elevation: 55 m

Current weather observation

The report was made 1 hour and 25 minutes ago, at 05:00 UTC
Wind 15 kt from the South
Temperature 26°C
Humidity 74%
Pressure 1019 hPa
Visibility 10 km or more
Scattered clouds at a height of 1300 ft
Broken clouds at a height of 1400 ft
showers in vicinity

METAR: HTDA 230500Z 18015KT 9999 VCSH SCT013 BKN014 26/21 Q1019 NOSIG

Time: 09:25 (06:25 UTC)

Forecast

The report was made 1 hour and 25 minutes ago, at 05:00 UTC
Forecast valid from 23 at 06 UTC to 24 at 12 UTC
Wind 20 kt from the South/Southeast
Visibility 10 km or more
Broken clouds at a height of 2000 ft
Becoming
from 23 at 18 UTC to 23 at 21 UTC
Wind 10 kt from the Southeast
Scattered clouds at a height of 1700 ft

TAF: HTDA 230500Z 2306/2412 16020KT 9999 BKN020 BECMG 2318/2321 14010KT SCT017

Weather observations and forecasts of more than 4000 airports (METAR and TAF reports).

The available stations are represented by yellow and red dots on the map.

Hover mouse over dot to see the name of the station.

Then click to see weather observations and forecasts.

To change the map : click on the green buttons with a black cross to zoom in, on the green button with a dash to zoom out, or on the green arrows for adjacent maps.


METAR-TAF: